sensor_id;sensor_type;location;lat;lon;timestamp;pressure;altitude;pressure_sealevel;temperature;humidity
62508;BME280;48556;51.972;4.624;2022-12-18T00:01:12;102840.25;;;-0.25;85.02
62508;BME280;48556;51.972;4.624;2022-12-18T00:03:39;102827.84;;;-0.04;84.19
62508;BME280;48556;51.972;4.624;2022-12-18T00:06:04;102820.38;;;-0.53;85.50
62508;BME280;48556;51.972;4.624;2022-12-18T00:08:30;102823.66;;;-0.15;84.14
62508;BME280;48556;51.972;4.624;2022-12-18T00:11:03;102815.22;;;-0.26;84.91
62508;BME280;48556;51.972;4.624;2022-12-18T00:13:29;102808.91;;;-0.03;84.32
62508;BME280;48556;51.972;4.624;2022-12-18T00:15:55;102828.44;;;-0.22;84.68
62508;BME280;48556;51.972;4.624;2022-12-18T00:18:20;102825.28;;;-0.44;84.70
62508;BME280;48556;51.972;4.624;2022-12-18T00:20:46;102814.09;;;-0.03;84.67
62508;BME280;48556;51.972;4.624;2022-12-18T00:23:11;102815.97;;;0.13;83.14
62508;BME280;48556;51.972;4.624;2022-12-18T00:25:37;102814.31;;;0.00;82.82
62508;BME280;48556;51.972;4.624;2022-12-18T00:28:03;102816.41;;;-0.35;84.47
62508;BME280;48556;51.972;4.624;2022-12-18T00:30:29;102825.34;;;-0.03;83.82
62508;BME280;48556;51.972;4.624;2022-12-18T00:32:55;102810.19;;;0.45;82.29
62508;BME280;48556;51.972;4.624;2022-12-18T00:35:21;102814.75;;;0.21;81.87
62508;BME280;48556;51.972;4.624;2022-12-18T00:37:47;102816.50;;;0.22;81.27
62508;BME280;48556;51.972;4.624;2022-12-18T00:40:12;102813.56;;;0.44;81.09
62508;BME280;48556;51.972;4.624;2022-12-18T00:42:38;102822.41;;;0.20;80.85
62508;BME280;48556;51.972;4.624;2022-12-18T00:45:24;102814.22;;;-0.15;81.70
62508;BME280;48556;51.972;4.624;2022-12-18T00:47:50;102810.16;;;-0.25;81.94
62508;BME280;48556;51.972;4.624;2022-12-18T00:50:16;102814.34;;;-0.40;83.37
62508;BME280;48556;51.972;4.624;2022-12-18T00:52:42;102821.28;;;-0.12;82.39
62508;BME280;48556;51.972;4.624;2022-12-18T00:55:08;102817.09;;;-0.10;81.99
62508;BME280;48556;51.972;4.624;2022-12-18T00:57:34;102828.22;;;0.02;81.68
62508;BME280;48556;51.972;4.624;2022-12-18T01:00:00;102828.72;;;0.38;80.44
62508;BME280;48556;51.972;4.624;2022-12-18T01:02:26;102817.16;;;0.46;79.11
62508;BME280;48556;51.972;4.624;2022-12-18T01:04:51;102818.59;;;0.28;80.11
62508;BME280;48556;51.972;4.624;2022-12-18T01:07:17;102811.16;;;0.19;79.98
62508;BME280;48556;51.972;4.624;2022-12-18T01:09:42;102819.66;;;-0.10;81.33
62508;BME280;48556;51.972;4.624;2022-12-18T01:12:08;102816.25;;;0.17;80.92
62508;BME280;48556;51.972;4.624;2022-12-18T01:14:33;102818.50;;;0.26;80.39
62508;BME280;48556;51.972;4.624;2022-12-18T01:16:59;102826.75;;;0.34;79.75
62508;BME280;48556;51.972;4.624;2022-12-18T01:19:27;102838.78;;;-0.35;82.38
62508;BME280;48556;51.972;4.624;2022-12-18T01:21:53;102829.03;;;-0.12;82.59
62508;BME280;48556;51.972;4.624;2022-12-18T01:24:19;102834.50;;;0.06;81.52
62508;BME280;48556;51.972;4.624;2022-12-18T01:26:45;102836.19;;;0.33;80.12
62508;BME280;48556;51.972;4.624;2022-12-18T01:29:10;102830.09;;;0.46;79.72
62508;BME280;48556;51.972;4.624;2022-12-18T01:31:36;102838.91;;;-0.33;81.67
62508;BME280;48556;51.972;4.624;2022-12-18T01:34:05;102847.34;;;-0.36;82.17
62508;BME280;48556;51.972;4.624;2022-12-18T01:36:34;102841.66;;;-0.44;82.68
62508;BME280;48556;51.972;4.624;2022-12-18T01:39:06;102846.50;;;-0.62;82.94
62508;BME280;48556;51.972;4.624;2022-12-18T01:41:33;102841.34;;;-0.62;83.54
62508;BME280;48556;51.972;4.624;2022-12-18T01:44:54;102837.38;;;-0.57;82.96
62508;BME280;48556;51.972;4.624;2022-12-18T01:47:33;102848.81;;;-0.66;84.25
62508;BME280;48556;51.972;4.624;2022-12-18T01:50:05;102856.28;;;-0.18;82.01
62508;BME280;48556;51.972;4.624;2022-12-18T01:52:33;102853.88;;;-0.55;82.02
62508;BME280;48556;51.972;4.624;2022-12-18T01:55:03;102851.25;;;-0.81;82.88
62508;BME280;48556;51.972;4.624;2022-12-18T01:57:29;102855.97;;;-0.36;82.33
62508;BME280;48556;51.972;4.624;2022-12-18T02:00:00;102862.34;;;-0.44;81.59
62508;BME280;48556;51.972;4.624;2022-12-18T02:02:30;102861.72;;;-1.05;83.04
62508;BME280;48556;51.972;4.624;2022-12-18T02:04:56;102872.94;;;-0.79;83.01
62508;BME280;48556;51.972;4.624;2022-12-18T02:07:40;102859.75;;;-0.57;82.20
62508;BME280;48556;51.972;4.624;2022-12-18T02:16:01;102855.69;;;0.00;79.53
62508;BME280;48556;51.972;4.624;2022-12-18T02:18:44;102852.78;;;-0.58;81.83
62508;BME280;48556;51.972;4.624;2022-12-18T02:21:20;102852.09;;;-0.56;82.00
62508;BME280;48556;51.972;4.624;2022-12-18T02:24:25;102847.16;;;-0.12;79.83
62508;BME280;48556;51.972;4.624;2022-12-18T02:26:58;102851.22;;;-0.16;80.30
62508;BME280;48556;51.972;4.624;2022-12-18T02:29:39;102837.88;;;-0.09;81.15
62508;BME280;48556;51.972;4.624;2022-12-18T02:32:11;102849.22;;;-0.20;79.48
62508;BME280;48556;51.972;4.624;2022-12-18T02:34:40;102849.69;;;0.01;78.40
62508;BME280;48556;51.972;4.624;2022-12-18T02:37:12;102859.78;;;0.38;78.15
62508;BME280;48556;51.972;4.624;2022-12-18T02:39:42;102857.69;;;-0.09;78.85
62508;BME280;48556;51.972;4.624;2022-12-18T02:42:11;102859.00;;;0.26;77.84
62508;BME280;48556;51.972;4.624;2022-12-18T02:44:55;102848.66;;;0.26;77.25
62508;BME280;48556;51.972;4.624;2022-12-18T02:47:24;102834.50;;;0.34;76.36
62508;BME280;48556;51.972;4.624;2022-12-18T03:01:01;102823.69;;;-0.29;78.98
62508;BME280;48556;51.972;4.624;2022-12-18T03:06:20;102813.53;;;-0.12;78.29
62508;BME280;48556;51.972;4.624;2022-12-18T03:09:06;102802.81;;;-0.32;77.57
62508;BME280;48556;51.972;4.624;2022-12-18T03:11:37;102793.34;;;-0.58;78.85
62508;BME280;48556;51.972;4.624;2022-12-18T03:14:25;102784.09;;;-0.41;77.95
62508;BME280;48556;51.972;4.624;2022-12-18T03:16:57;102776.84;;;0.08;77.20
62508;BME280;48556;51.972;4.624;2022-12-18T03:19:28;102789.94;;;-0.17;76.67
62508;BME280;48556;51.972;4.624;2022-12-18T03:21:57;102787.78;;;-0.51;77.60
62508;BME280;48556;51.972;4.624;2022-12-18T03:24:27;102787.34;;;-0.17;76.77
62508;BME280;48556;51.972;4.624;2022-12-18T03:26:59;102796.13;;;-0.28;78.00
62508;BME280;48556;51.972;4.624;2022-12-18T03:29:49;102793.03;;;-0.23;76.67
62508;BME280;48556;51.972;4.624;2022-12-18T03:32:31;102790.84;;;-0.83;77.74
62508;BME280;48556;51.972;4.624;2022-12-18T03:35:03;102788.88;;;-0.74;77.47
62508;BME280;48556;51.972;4.624;2022-12-18T03:37:31;102783.19;;;-0.69;77.94
62508;BME280;48556;51.972;4.624;2022-12-18T03:39:57;102783.91;;;-0.58;77.91
62508;BME280;48556;51.972;4.624;2022-12-18T03:42:37;102792.06;;;-0.52;77.29
62508;BME280;48556;51.972;4.624;2022-12-18T03:47:50;102772.56;;;-0.87;78.15
62508;BME280;48556;51.972;4.624;2022-12-18T03:54:13;102774.19;;;-0.75;77.15
62508;BME280;48556;51.972;4.624;2022-12-18T03:56:16;102775.03;;;-0.88;77.28
62508;BME280;48556;51.972;4.624;2022-12-18T03:58:46;102780.03;;;-0.51;76.50
62508;BME280;48556;51.972;4.624;2022-12-18T04:01:15;102772.59;;;-0.60;76.93
62508;BME280;48556;51.972;4.624;2022-12-18T04:03:44;102771.69;;;-0.33;75.71
62508;BME280;48556;51.972;4.624;2022-12-18T04:06:11;102778.75;;;-0.44;75.19
62508;BME280;48556;51.972;4.624;2022-12-18T04:08:39;102775.44;;;-0.28;75.50
62508;BME280;48556;51.972;4.624;2022-12-18T04:11:05;102773.25;;;-0.36;75.01
62508;BME280;48556;51.972;4.624;2022-12-18T04:13:36;102778.34;;;-0.37;75.03
62508;BME280;48556;51.972;4.624;2022-12-18T04:16:02;102781.72;;;-0.25;74.28
62508;BME280;48556;51.972;4.624;2022-12-18T04:18:28;102780.78;;;-0.25;74.59
62508;BME280;48556;51.972;4.624;2022-12-18T04:20:54;102769.06;;;0.22;73.16
62508;BME280;48556;51.972;4.624;2022-12-18T04:23:19;102780.78;;;0.02;73.42
62508;BME280;48556;51.972;4.624;2022-12-18T04:25:46;102783.50;;;-0.24;73.95
62508;BME280;48556;51.972;4.624;2022-12-18T04:28:12;102774.94;;;0.19;72.01
62508;BME280;48556;51.972;4.624;2022-12-18T04:30:38;102782.78;;;-0.08;72.67
62508;BME280;48556;51.972;4.624;2022-12-18T04:33:03;102782.59;;;0.17;71.57
62508;BME280;48556;51.972;4.624;2022-12-18T04:35:29;102780.34;;;0.37;71.45
62508;BME280;48556;51.972;4.624;2022-12-18T04:37:55;102789.22;;;-0.01;70.95
62508;BME280;48556;51.972;4.624;2022-12-18T04:40:20;102790.97;;;0.13;70.61
62508;BME280;48556;51.972;4.624;2022-12-18T04:42:46;102791.63;;;-0.04;70.27
62508;BME280;48556;51.972;4.624;2022-12-18T04:45:12;102783.19;;;-0.15;71.58
62508;BME280;48556;51.972;4.624;2022-12-18T04:47:37;102791.81;;;-0.14;71.14
62508;BME280;48556;51.972;4.624;2022-12-18T04:50:03;102790.78;;;0.10;71.22
62508;BME280;48556;51.972;4.624;2022-12-18T04:52:29;102796.06;;;-0.02;70.94
62508;BME280;48556;51.972;4.624;2022-12-18T04:54:54;102787.94;;;-0.21;71.00
62508;BME280;48556;51.972;4.624;2022-12-18T04:57:20;102779.78;;;0.28;69.50
62508;BME280;48556;51.972;4.624;2022-12-18T04:59:45;102780.34;;;0.37;68.85
62508;BME280;48556;51.972;4.624;2022-12-18T05:02:11;102781.81;;;0.19;67.97
62508;BME280;48556;51.972;4.624;2022-12-18T05:04:37;102778.00;;;0.27;67.79
62508;BME280;48556;51.972;4.624;2022-12-18T05:07:02;102774.59;;;0.28;67.52
62508;BME280;48556;51.972;4.624;2022-12-18T05:09:28;102781.38;;;0.26;67.67
62508;BME280;48556;51.972;4.624;2022-12-18T05:11:53;102788.44;;;0.00;67.94
62508;BME280;48556;51.972;4.624;2022-12-18T05:14:19;102794.97;;;0.08;67.71
62508;BME280;48556;51.972;4.624;2022-12-18T05:16:45;102786.59;;;0.12;66.94
62508;BME280;48556;51.972;4.624;2022-12-18T05:19:10;102788.19;;;0.10;66.71
62508;BME280;48556;51.972;4.624;2022-12-18T05:21:36;102791.31;;;0.05;66.54
62508;BME280;48556;51.972;4.624;2022-12-18T05:24:02;102780.63;;;0.13;66.37
62508;BME280;48556;51.972;4.624;2022-12-18T05:26:27;102790.81;;;-0.03;66.77
62508;BME280;48556;51.972;4.624;2022-12-18T05:28:56;102786.66;;;-0.14;67.29
62508;BME280;48556;51.972;4.624;2022-12-18T05:31:21;102777.31;;;-0.39;68.40
62508;BME280;48556;51.972;4.624;2022-12-18T05:33:48;102784.28;;;-0.38;68.88
62508;BME280;48556;51.972;4.624;2022-12-18T05:36:13;102770.19;;;-0.43;68.76
62508;BME280;48556;51.972;4.624;2022-12-18T05:38:39;102776.75;;;-0.48;69.51
62508;BME280;48556;51.972;4.624;2022-12-18T05:41:06;102784.38;;;-0.77;70.43
62508;BME280;48556;51.972;4.624;2022-12-18T05:43:36;102775.63;;;-0.25;68.90
62508;BME280;48556;51.972;4.624;2022-12-18T05:46:13;102775.53;;;-0.13;67.47
62508;BME280;48556;51.972;4.624;2022-12-18T05:48:38;102770.28;;;-0.69;67.85
62508;BME280;48556;51.972;4.624;2022-12-18T05:51:10;102770.91;;;-0.46;68.80
62508;BME280;48556;51.972;4.624;2022-12-18T05:53:36;102766.41;;;-0.89;68.47
62508;BME280;48556;51.972;4.624;2022-12-18T05:56:09;102766.13;;;-0.93;68.75
62508;BME280;48556;51.972;4.624;2022-12-18T05:58:35;102771.38;;;-0.92;68.62
62508;BME280;48556;51.972;4.624;2022-12-18T06:01:11;102765.44;;;-1.29;70.12
62508;BME280;48556;51.972;4.624;2022-12-18T06:03:37;102756.69;;;-0.79;68.85
62508;BME280;48556;51.972;4.624;2022-12-18T06:06:03;102758.19;;;-1.22;70.12
62508;BME280;48556;51.972;4.624;2022-12-18T06:08:29;102752.13;;;-1.86;73.15
62508;BME280;48556;51.972;4.624;2022-12-18T06:10:55;102763.34;;;-1.22;71.10
62508;BME280;48556;51.972;4.624;2022-12-18T06:13:21;102761.69;;;-1.08;70.66
62508;BME280;48556;51.972;4.624;2022-12-18T06:15:47;102745.94;;;-0.99;69.54
62508;BME280;48556;51.972;4.624;2022-12-18T06:18:12;102746.72;;;-0.87;68.64
62508;BME280;48556;51.972;4.624;2022-12-18T06:20:38;102730.25;;;-0.75;68.64
62508;BME280;48556;51.972;4.624;2022-12-18T06:23:05;102731.72;;;-0.92;68.16
62508;BME280;48556;51.972;4.624;2022-12-18T06:25:32;102731.81;;;-1.04;68.90
62508;BME280;48556;51.972;4.624;2022-12-18T06:27:58;102727.41;;;-1.32;70.12
62508;BME280;48556;51.972;4.624;2022-12-18T06:30:24;102734.59;;;-1.53;71.47
62508;BME280;48556;51.972;4.624;2022-12-18T06:32:50;102734.31;;;-1.44;69.54
62508;BME280;48556;51.972;4.624;2022-12-18T06:35:15;102732.13;;;-1.51;69.79
62508;BME280;48556;51.972;4.624;2022-12-18T06:37:41;102729.34;;;-1.41;69.45
62508;BME280;48556;51.972;4.624;2022-12-18T06:40:07;102727.16;;;-1.48;69.42
62508;BME280;48556;51.972;4.624;2022-12-18T06:42:32;102721.22;;;-1.47;69.15
62508;BME280;48556;51.972;4.624;2022-12-18T06:44:58;102730.75;;;-1.46;68.93
62508;BME280;48556;51.972;4.624;2022-12-18T06:47:23;102721.28;;;-1.34;69.11
62508;BME280;48556;51.972;4.624;2022-12-18T06:49:49;102717.63;;;-1.49;68.84
62508;BME280;48556;51.972;4.624;2022-12-18T06:52:15;102713.94;;;-1.14;68.29
62508;BME280;48556;51.972;4.624;2022-12-18T06:54:40;102710.31;;;-1.30;68.12
62508;BME280;48556;51.972;4.624;2022-12-18T06:57:06;102711.69;;;-1.48;68.14
62508;BME280;48556;51.972;4.624;2022-12-18T06:59:31;102705.84;;;-1.46;69.20
62508;BME280;48556;51.972;4.624;2022-12-18T07:01:57;102695.66;;;-1.31;68.68
62508;BME280;48556;51.972;4.624;2022-12-18T07:04:28;102691.25;;;-1.45;68.22
62508;BME280;48556;51.972;4.624;2022-12-18T07:06:53;102688.88;;;-1.29;67.32
62508;BME280;48556;51.972;4.624;2022-12-18T07:09:19;102691.66;;;-1.39;67.36
62508;BME280;48556;51.972;4.624;2022-12-18T07:11:45;102694.56;;;-1.21;67.58
62508;BME280;48556;51.972;4.624;2022-12-18T07:14:10;102690.97;;;-1.23;67.17
62508;BME280;48556;51.972;4.624;2022-12-18T07:16:36;102687.53;;;-1.62;68.70
62508;BME280;48556;51.972;4.624;2022-12-18T07:19:01;102677.66;;;-1.56;68.58
62508;BME280;48556;51.972;4.624;2022-12-18T07:21:27;102667.41;;;-1.55;69.19
62508;BME280;48556;51.972;4.624;2022-12-18T07:23:52;102656.63;;;-1.35;67.62
62508;BME280;48556;51.972;4.624;2022-12-18T07:26:20;102648.28;;;-1.83;69.87
62508;BME280;48556;51.972;4.624;2022-12-18T07:28:46;102640.63;;;-1.30;68.87
62508;BME280;48556;51.972;4.624;2022-12-18T07:31:15;102634.50;;;-1.32;68.44
62508;BME280;48556;51.972;4.624;2022-12-18T07:33:41;102638.63;;;-1.61;68.37
62508;BME280;48556;51.972;4.624;2022-12-18T07:36:09;102628.09;;;-1.64;68.25
62508;BME280;48556;51.972;4.624;2022-12-18T07:38:36;102623.81;;;-1.77;68.29
62508;BME280;48556;51.972;4.624;2022-12-18T07:41:12;102632.03;;;-1.69;69.07
62508;BME280;48556;51.972;4.624;2022-12-18T07:43:39;102633.56;;;-1.98;69.24
62508;BME280;48556;51.972;4.624;2022-12-18T07:46:06;102641.38;;;-1.71;68.92
62508;BME280;48556;51.972;4.624;2022-12-18T07:48:32;102642.75;;;-1.76;69.03
62508;BME280;48556;51.972;4.624;2022-12-18T07:51:01;102652.47;;;-1.85;68.51
62508;BME280;48556;51.972;4.624;2022-12-18T07:53:28;102643.44;;;-1.79;69.00
62508;BME280;48556;51.972;4.624;2022-12-18T07:56:00;102630.81;;;-1.87;69.22
62508;BME280;48556;51.972;4.624;2022-12-18T07:58:27;102638.41;;;-1.64;69.32
62508;BME280;48556;51.972;4.624;2022-12-18T08:00:53;102643.72;;;-2.13;71.02
62508;BME280;48556;51.972;4.624;2022-12-18T08:03:19;102639.88;;;-2.06;70.88
62508;BME280;48556;51.972;4.624;2022-12-18T08:05:44;102628.91;;;-2.29;72.47
62508;BME280;48556;51.972;4.624;2022-12-18T08:08:10;102637.50;;;-2.28;72.09
62508;BME280;48556;51.972;4.624;2022-12-18T08:10:37;102636.09;;;-2.11;71.87
62508;BME280;48556;51.972;4.624;2022-12-18T08:13:02;102630.91;;;-2.25;71.81
62508;BME280;48556;51.972;4.624;2022-12-18T08:15:28;102624.13;;;-2.11;71.16
62508;BME280;48556;51.972;4.624;2022-12-18T08:17:56;102627.97;;;-2.04;71.69
62508;BME280;48556;51.972;4.624;2022-12-18T08:20:22;102621.53;;;-2.11;72.26
62508;BME280;48556;51.972;4.624;2022-12-18T08:22:48;102627.84;;;-2.44;72.15
62508;BME280;48556;51.972;4.624;2022-12-18T08:25:13;102618.72;;;-2.14;72.39
62508;BME280;48556;51.972;4.624;2022-12-18T08:27:39;102621.41;;;-2.12;72.24
62508;BME280;48556;51.972;4.624;2022-12-18T08:30:05;102617.66;;;-2.17;72.73
62508;BME280;48556;51.972;4.624;2022-12-18T08:32:32;102613.72;;;-2.49;73.07
62508;BME280;48556;51.972;4.624;2022-12-18T08:34:58;102608.13;;;-2.18;73.10
62508;BME280;48556;51.972;4.624;2022-12-18T08:37:24;102612.31;;;-2.07;72.74
62508;BME280;48556;51.972;4.624;2022-12-18T08:39:49;102616.81;;;-2.42;74.07
62508;BME280;48556;51.972;4.624;2022-12-18T08:42:15;102624.34;;;-2.19;73.93
62508;BME280;48556;51.972;4.624;2022-12-18T08:44:59;102638.56;;;-1.87;72.15
62508;BME280;48556;51.972;4.624;2022-12-18T08:47:24;102648.88;;;-1.87;72.80
62508;BME280;48556;51.972;4.624;2022-12-18T08:49:51;102648.97;;;-1.86;73.36
62508;BME280;48556;51.972;4.624;2022-12-18T08:52:17;102655.09;;;-1.59;72.23
62508;BME280;48556;51.972;4.624;2022-12-18T08:54:42;102663.34;;;-1.51;71.47
62508;BME280;48556;51.972;4.624;2022-12-18T08:57:08;102662.19;;;-1.29;70.84
62508;BME280;48556;51.972;4.624;2022-12-18T08:59:33;102662.69;;;-1.74;72.59
62508;BME280;48556;51.972;4.624;2022-12-18T09:01:59;102671.03;;;-1.39;71.75
62508;BME280;48556;51.972;4.624;2022-12-18T09:04:24;102668.91;;;-1.83;71.75
62508;BME280;48556;51.972;4.624;2022-12-18T09:06:50;102662.84;;;-1.45;72.33
62508;BME280;48556;51.972;4.624;2022-12-18T09:09:16;102651.63;;;-1.59;72.81
62508;BME280;48556;51.972;4.624;2022-12-18T09:11:41;102654.13;;;-1.47;73.22
62508;BME280;48556;51.972;4.624;2022-12-18T09:14:08;102652.28;;;-1.10;71.99
62508;BME280;48556;51.972;4.624;2022-12-18T09:16:34;102654.97;;;-0.95;71.52
62508;BME280;48556;51.972;4.624;2022-12-18T09:19:02;102647.09;;;-1.36;72.32
62508;BME280;48556;51.972;4.624;2022-12-18T09:21:31;102624.38;;;-1.29;72.19
62508;BME280;48556;51.972;4.624;2022-12-18T09:23:57;102607.78;;;-1.19;72.63
62508;BME280;48556;51.972;4.624;2022-12-18T09:26:24;102594.13;;;-0.76;70.67
62508;BME280;48556;51.972;4.624;2022-12-18T09:28:50;102591.75;;;-0.87;71.24
62508;BME280;48556;51.972;4.624;2022-12-18T09:31:18;102598.91;;;-0.82;70.25
62508;BME280;48556;51.972;4.624;2022-12-18T09:33:44;102613.25;;;-1.28;72.48
62508;BME280;48556;51.972;4.624;2022-12-18T09:36:12;102626.28;;;-0.58;70.79
62508;BME280;48556;51.972;4.624;2022-12-18T09:38:38;102620.47;;;-0.40;69.91
62508;BME280;48556;51.972;4.624;2022-12-18T09:41:33;102614.53;;;-0.53;69.70
62508;BME280;48556;51.972;4.624;2022-12-18T09:44:10;102613.50;;;-0.41;69.87
62508;BME280;48556;51.972;4.624;2022-12-18T09:46:45;102615.75;;;-0.61;70.06
62508;BME280;48556;51.972;4.624;2022-12-18T09:49:16;102623.56;;;-0.18;69.45
62508;BME280;48556;51.972;4.624;2022-12-18T09:51:52;102625.66;;;0.03;68.69
62508;BME280;48556;51.972;4.624;2022-12-18T09:54:29;102619.00;;;0.22;67.69
62508;BME280;48556;51.972;4.624;2022-12-18T09:57:17;102626.56;;;0.33;67.57
62508;BME280;48556;51.972;4.624;2022-12-18T10:00:02;102620.16;;;-0.45;69.00
62508;BME280;48556;51.972;4.624;2022-12-18T10:02:30;102593.19;;;-0.35;68.97
62508;BME280;48556;51.972;4.624;2022-12-18T10:05:05;102599.13;;;-0.23;69.00
62508;BME280;48556;51.972;4.624;2022-12-18T10:10:43;102597.97;;;-0.28;70.52
62508;BME280;48556;51.972;4.624;2022-12-18T10:13:39;102601.78;;;-0.21;69.98
62508;BME280;48556;51.972;4.624;2022-12-18T10:16:16;102594.41;;;-0.15;69.86
62508;BME280;48556;51.972;4.624;2022-12-18T10:21:30;102573.38;;;0.24;69.11
62508;BME280;48556;51.972;4.624;2022-12-18T10:26:26;102560.63;;;-0.18;69.98
62508;BME280;48556;51.972;4.624;2022-12-18T10:28:53;102566.72;;;-0.31;71.08
62508;BME280;48556;51.972;4.624;2022-12-18T10:31:22;102562.88;;;-0.09;70.36
62508;BME280;48556;51.972;4.624;2022-12-18T10:33:48;102561.09;;;0.20;69.03
62508;BME280;48556;51.972;4.624;2022-12-18T10:36:17;102555.66;;;0.00;69.21
62508;BME280;48556;51.972;4.624;2022-12-18T10:38:46;102550.03;;;-0.51;70.72
62508;BME280;48556;51.972;4.624;2022-12-18T10:44:12;102557.06;;;0.25;69.63
62508;BME280;48556;51.972;4.624;2022-12-18T10:46:38;102540.22;;;0.31;69.82
62508;BME280;48556;51.972;4.624;2022-12-18T10:49:04;102541.47;;;0.70;69.18
62508;BME280;48556;51.972;4.624;2022-12-18T10:51:36;102560.63;;;0.42;69.48
62508;BME280;48556;51.972;4.624;2022-12-18T10:54:22;102560.44;;;0.54;69.67
62508;BME280;48556;51.972;4.624;2022-12-18T10:56:49;102555.38;;;0.10;70.22
62508;BME280;48556;51.972;4.624;2022-12-18T10:59:17;102542.72;;;0.45;70.17
62508;BME280;48556;51.972;4.624;2022-12-18T11:01:53;102535.41;;;0.69;69.20
62508;BME280;48556;51.972;4.624;2022-12-18T11:04:29;102535.81;;;0.30;70.14
62508;BME280;48556;51.972;4.624;2022-12-18T11:07:01;102525.47;;;0.45;70.91
62508;BME280;48556;51.972;4.624;2022-12-18T11:09:40;102537.69;;;0.79;68.84
62508;BME280;48556;51.972;4.624;2022-12-18T11:14:47;102539.94;;;1.05;68.05
62508;BME280;48556;51.972;4.624;2022-12-18T11:17:35;102545.09;;;1.52;66.60
62508;BME280;48556;51.972;4.624;2022-12-18T11:20:19;102549.94;;;1.46;66.28
62508;BME280;48556;51.972;4.624;2022-12-18T11:23:10;102537.47;;;1.39;65.55
62508;BME280;48556;51.972;4.624;2022-12-18T11:25:37;102534.94;;;1.74;66.27
62508;BME280;48556;51.972;4.624;2022-12-18T11:28:24;102519.53;;;2.11;65.21
62508;BME280;48556;51.972;4.624;2022-12-18T11:33:48;102523.19;;;1.64;65.22
62508;BME280;48556;51.972;4.624;2022-12-18T11:36:18;102526.28;;;1.57;65.06
62508;BME280;48556;51.972;4.624;2022-12-18T11:38:48;102515.78;;;1.53;66.42
62508;BME280;48556;51.972;4.624;2022-12-18T11:43:58;102516.38;;;1.66;66.07
62508;BME280;48556;51.972;4.624;2022-12-18T11:46:34;102503.75;;;1.56;66.77
62508;BME280;48556;51.972;4.624;2022-12-18T11:49:11;102490.28;;;1.79;65.86
62508;BME280;48556;51.972;4.624;2022-12-18T11:51:55;102477.47;;;1.31;68.09
62508;BME280;48556;51.972;4.624;2022-12-18T11:54:25;102466.69;;;1.24;67.99
62508;BME280;48556;51.972;4.624;2022-12-18T11:57:01;102456.50;;;0.62;69.66
62508;BME280;48556;51.972;4.624;2022-12-18T11:59:52;102448.97;;;1.15;68.62
62508;BME280;48556;51.972;4.624;2022-12-18T12:14:13;102421.50;;;0.85;70.31
62508;BME280;48556;51.972;4.624;2022-12-18T12:16:57;102420.84;;;1.23;69.49
62508;BME280;48556;51.972;4.624;2022-12-18T12:19:55;102434.78;;;1.25;69.28
62508;BME280;48556;51.972;4.624;2022-12-18T12:25:37;102420.44;;;1.31;69.19
62508;BME280;48556;51.972;4.624;2022-12-18T12:39:37;102403.00;;;1.45;68.54
62508;BME280;48556;51.972;4.624;2022-12-18T12:42:29;102398.28;;;1.73;68.82
62508;BME280;48556;51.972;4.624;2022-12-18T12:45:22;102409.50;;;1.37;68.72
62508;BME280;48556;51.972;4.624;2022-12-18T12:47:56;102408.63;;;1.54;68.34
62508;BME280;48556;51.972;4.624;2022-12-18T12:50:25;102398.88;;;1.67;68.00
62508;BME280;48556;51.972;4.624;2022-12-18T12:52:57;102396.28;;;1.67;67.86
62508;BME280;48556;51.972;4.624;2022-12-18T12:55:26;102394.34;;;1.63;68.48
62508;BME280;48556;51.972;4.624;2022-12-18T13:08:59;102369.06;;;2.31;66.47
62508;BME280;48556;51.972;4.624;2022-12-18T13:11:46;102368.72;;;2.05;67.23
62508;BME280;48556;51.972;4.624;2022-12-18T13:14:37;102360.00;;;2.41;66.11
62508;BME280;48556;51.972;4.624;2022-12-18T13:19:51;102359.66;;;2.52;66.68
62508;BME280;48556;51.972;4.624;2022-12-18T13:25:36;102355.03;;;2.65;65.79
62508;BME280;48556;51.972;4.624;2022-12-18T13:28:14;102352.56;;;2.87;64.53
62508;BME280;48556;51.972;4.624;2022-12-18T13:30:49;102338.00;;;2.52;65.90
62508;BME280;48556;51.972;4.624;2022-12-18T13:44:10;102310.59;;;2.19;68.46
62508;BME280;48556;51.972;4.624;2022-12-18T13:46:45;102309.38;;;2.50;67.94
62508;BME280;48556;51.972;4.624;2022-12-18T13:51:48;102301.13;;;2.02;68.21
62508;BME280;48556;51.972;4.624;2022-12-18T13:54:41;102297.53;;;1.80;69.24
62508;BME280;48556;51.972;4.624;2022-12-18T13:57:30;102310.50;;;1.10;71.26
62508;BME280;48556;51.972;4.624;2022-12-18T13:59:56;102297.59;;;1.64;70.89
62508;BME280;48556;51.972;4.624;2022-12-18T14:02:25;102290.78;;;1.48;70.63
62508;BME280;48556;51.972;4.624;2022-12-18T14:04:51;102289.53;;;1.22;71.62
62508;BME280;48556;51.972;4.624;2022-12-18T14:07:24;102280.50;;;1.31;72.44
62508;BME280;48556;51.972;4.624;2022-12-18T14:09:58;102280.25;;;1.81;71.16
62508;BME280;48556;51.972;4.624;2022-12-18T14:12:32;102279.91;;;1.73;70.86
62508;BME280;48556;51.972;4.624;2022-12-18T14:20:52;102286.47;;;1.12;72.29
62508;BME280;48556;51.972;4.624;2022-12-18T14:23:34;102266.53;;;1.11;72.81
62508;BME280;48556;51.972;4.624;2022-12-18T14:26:23;102263.03;;;1.27;72.39
62508;BME280;48556;51.972;4.624;2022-12-18T14:28:49;102269.50;;;1.01;72.91
62508;BME280;48556;51.972;4.624;2022-12-18T14:31:19;102259.94;;;1.00;73.43
62508;BME280;48556;51.972;4.624;2022-12-18T14:33:46;102269.59;;;0.86;73.99
62508;BME280;48556;51.972;4.624;2022-12-18T14:36:26;102253.97;;;0.84;73.96
62508;BME280;48556;51.972;4.624;2022-12-18T14:38:57;102251.25;;;0.81;74.53
62508;BME280;48556;51.972;4.624;2022-12-18T14:41:28;102254.00;;;1.55;72.54
62508;BME280;48556;51.972;4.624;2022-12-18T14:43:54;102234.59;;;1.47;72.54
62508;BME280;48556;51.972;4.624;2022-12-18T14:52:13;102221.69;;;1.48;72.70
62508;BME280;48556;51.972;4.624;2022-12-18T14:54:46;102216.81;;;1.74;71.80
62508;BME280;48556;51.972;4.624;2022-12-18T14:57:20;102209.97;;;1.57;71.64
62508;BME280;48556;51.972;4.624;2022-12-18T14:59:46;102214.06;;;1.33;72.61
62508;BME280;48556;51.972;4.624;2022-12-18T15:02:22;102220.06;;;1.32;72.87
62508;BME280;48556;51.972;4.624;2022-12-18T15:07:41;102218.88;;;1.08;73.47